sensor_id;sensor_type;location;lat;lon;timestamp;pressure;altitude;pressure_sealevel;temperature;humidity
50462;BME280;45257;37.996;-122.328;2022-07-24T00:01:03;100867.25;;;20.09;57.71
50462;BME280;45257;37.996;-122.328;2022-07-24T00:03:30;100870.78;;;20.10;57.65
50462;BME280;45257;37.996;-122.328;2022-07-24T00:05:57;100859.81;;;20.11;57.64
50462;BME280;45257;37.996;-122.328;2022-07-24T00:08:24;100859.81;;;20.11;57.49
50462;BME280;45257;37.996;-122.328;2022-07-24T00:10:51;100865.19;;;20.11;57.74
50462;BME280;45257;37.996;-122.328;2022-07-24T00:13:17;100860.66;;;20.12;57.65
50462;BME280;45257;37.996;-122.328;2022-07-24T00:15:44;100857.75;;;20.13;57.42
50462;BME280;45257;37.996;-122.328;2022-07-24T00:18:13;100861.28;;;20.14;57.79
50462;BME280;45257;37.996;-122.328;2022-07-24T00:20:40;100860.25;;;20.15;57.71
50462;BME280;45257;37.996;-122.328;2022-07-24T00:23:07;100866.44;;;20.16;57.53
50462;BME280;45257;37.996;-122.328;2022-07-24T00:25:34;100861.06;;;20.16;57.45
50462;BME280;45257;37.996;-122.328;2022-07-24T00:28:01;100860.25;;;20.15;57.58
50462;BME280;45257;37.996;-122.328;2022-07-24T00:30:28;100864.38;;;20.18;57.56
50462;BME280;45257;37.996;-122.328;2022-07-24T00:32:54;100867.28;;;20.16;57.55
50462;BME280;45257;37.996;-122.328;2022-07-24T00:35:22;100862.72;;;20.17;57.59
50462;BME280;45257;37.996;-122.328;2022-07-24T00:37:49;100866.25;;;20.17;57.49
50462;BME280;45257;37.996;-122.328;2022-07-24T00:40:16;100863.56;;;20.17;57.48
50462;BME280;45257;37.996;-122.328;2022-07-24T00:42:44;100855.53;;;20.17;57.59
50462;BME280;45257;37.996;-122.328;2022-07-24T00:45:11;100848.28;;;20.18;57.74
50462;BME280;45257;37.996;-122.328;2022-07-24T00:47:38;100850.16;;;20.17;57.54
50462;BME280;45257;37.996;-122.328;2022-07-24T00:50:05;100860.69;;;20.19;57.61
50462;BME280;45257;37.996;-122.328;2022-07-24T00:52:33;100853.44;;;20.19;57.44
50462;BME280;45257;37.996;-122.328;2022-07-24T00:55:00;100864.19;;;20.19;57.59
50462;BME280;45257;37.996;-122.328;2022-07-24T00:57:27;100855.31;;;20.19;57.50
50462;BME280;45257;37.996;-122.328;2022-07-24T00:59:55;100864.19;;;20.19;57.48
50462;BME280;45257;37.996;-122.328;2022-07-24T01:02:22;100855.31;;;20.19;57.52
50462;BME280;45257;37.996;-122.328;2022-07-24T01:04:49;100855.31;;;20.19;57.56
50462;BME280;45257;37.996;-122.328;2022-07-24T01:07:17;100852.63;;;20.19;57.56
50462;BME280;45257;37.996;-122.328;2022-07-24T01:09:44;100855.31;;;20.19;57.54
50462;BME280;45257;37.996;-122.328;2022-07-24T01:12:12;100849.94;;;20.19;57.54
50462;BME280;45257;37.996;-122.328;2022-07-24T01:14:39;100844.56;;;20.19;57.50
50462;BME280;45257;37.996;-122.328;2022-07-24T01:17:06;100843.53;;;20.20;57.30
50462;BME280;45257;37.996;-122.328;2022-07-24T01:19:33;100840.84;;;20.20;57.39
50462;BME280;45257;37.996;-122.328;2022-07-24T01:22:00;100839.19;;;20.19;57.34
50462;BME280;45257;37.996;-122.328;2022-07-24T01:24:27;100830.94;;;20.20;57.38
50462;BME280;45257;37.996;-122.328;2022-07-24T01:26:54;100835.50;;;20.20;57.46
50462;BME280;45257;37.996;-122.328;2022-07-24T01:29:21;100834.63;;;20.19;57.30
50462;BME280;45257;37.996;-122.328;2022-07-24T01:31:49;100835.50;;;20.20;57.38
50462;BME280;45257;37.996;-122.328;2022-07-24T01:34:16;100839.81;;;20.21;57.54
50462;BME280;45257;37.996;-122.328;2022-07-24T01:36:42;100831.97;;;20.19;57.34
50462;BME280;45257;37.996;-122.328;2022-07-24T01:39:10;100828.47;;;20.19;57.16
50462;BME280;45257;37.996;-122.328;2022-07-24T01:41:37;100829.28;;;20.19;57.39
50462;BME280;45257;37.996;-122.328;2022-07-24T01:44:04;100841.03;;;20.18;57.31
50462;BME280;45257;37.996;-122.328;2022-07-24T01:46:31;100839.19;;;20.19;57.14
50462;BME280;45257;37.996;-122.328;2022-07-24T01:48:58;100853.66;;;20.18;57.22
50462;BME280;45257;37.996;-122.328;2022-07-24T01:51:25;100835.66;;;20.18;57.21
50462;BME280;45257;37.996;-122.328;2022-07-24T01:53:52;100837.53;;;20.18;57.17
50462;BME280;45257;37.996;-122.328;2022-07-24T01:56:19;100850.97;;;20.18;57.20
50462;BME280;45257;37.996;-122.328;2022-07-24T01:58:46;100834.84;;;20.18;57.19
50462;BME280;45257;37.996;-122.328;2022-07-24T02:01:13;100832.16;;;20.18;57.14
50462;BME280;45257;37.996;-122.328;2022-07-24T02:03:40;100839.41;;;20.17;57.23
50462;BME280;45257;37.996;-122.328;2022-07-24T02:06:07;100848.50;;;20.16;57.16
50462;BME280;45257;37.996;-122.328;2022-07-24T02:08:34;100845.81;;;20.16;57.35
50462;BME280;45257;37.996;-122.328;2022-07-24T02:11:01;100862.72;;;20.17;57.15
50462;BME280;45257;37.996;-122.328;2022-07-24T02:13:28;100843.31;;;20.15;57.07
50462;BME280;45257;37.996;-122.328;2022-07-24T02:15:55;100851.38;;;20.15;57.01
50462;BME280;45257;37.996;-122.328;2022-07-24T02:18:22;100853.03;;;20.16;56.93
50462;BME280;45257;37.996;-122.328;2022-07-24T02:20:50;100860.25;;;20.15;57.12
50462;BME280;45257;37.996;-122.328;2022-07-24T02:23:17;100859.41;;;20.15;57.12
50462;BME280;45257;37.996;-122.328;2022-07-24T02:25:48;100862.94;;;20.15;57.00
50462;BME280;45257;37.996;-122.328;2022-07-24T02:28:16;100863.97;;;20.14;56.91
50462;BME280;45257;37.996;-122.328;2022-07-24T02:30:43;100859.41;;;20.15;57.12
50462;BME280;45257;37.996;-122.328;2022-07-24T02:33:11;100861.28;;;20.14;57.14
50462;BME280;45257;37.996;-122.328;2022-07-24T02:35:39;100863.97;;;20.14;56.94
50462;BME280;45257;37.996;-122.328;2022-07-24T02:38:06;100851.56;;;20.13;56.98
50462;BME280;45257;37.996;-122.328;2022-07-24T02:40:33;100856.94;;;20.13;56.97
50462;BME280;45257;37.996;-122.328;2022-07-24T02:43:00;100854.25;;;20.13;57.17
50462;BME280;45257;37.996;-122.328;2022-07-24T02:45:27;100851.75;;;20.11;56.95
50462;BME280;45257;37.996;-122.328;2022-07-24T02:47:56;100847.41;;;20.10;57.21
50462;BME280;45257;37.996;-122.328;2022-07-24T02:50:29;100843.94;;;20.10;56.93
50462;BME280;45257;37.996;-122.328;2022-07-24T02:52:56;100849.69;;;20.07;56.89
50462;BME280;45257;37.996;-122.328;2022-07-24T02:55:23;100846.19;;;20.06;56.85
50462;BME280;45257;37.996;-122.328;2022-07-24T02:57:50;100848.88;;;20.06;56.83
50462;BME280;45257;37.996;-122.328;2022-07-24T03:00:18;100844.53;;;20.05;56.87
50462;BME280;45257;37.996;-122.328;2022-07-24T03:02:45;100842.88;;;20.04;56.88
50462;BME280;45257;37.996;-122.328;2022-07-24T03:05:12;100845.56;;;20.04;57.10
50462;BME280;45257;37.996;-122.328;2022-07-24T03:07:40;100842.88;;;20.04;57.03
50462;BME280;45257;37.996;-122.328;2022-07-24T03:10:10;100845.56;;;20.04;57.09
50462;BME280;45257;37.996;-122.328;2022-07-24T03:12:38;100840.38;;;20.03;57.05
50462;BME280;45257;37.996;-122.328;2022-07-24T03:15:06;100839.34;;;20.04;57.04
50462;BME280;45257;37.996;-122.328;2022-07-24T03:17:33;100846.59;;;20.03;57.02
50462;BME280;45257;37.996;-122.328;2022-07-24T03:20:00;100846.59;;;20.03;56.90
50462;BME280;45257;37.996;-122.328;2022-07-24T03:22:28;100857.31;;;20.03;56.90
50462;BME280;45257;37.996;-122.328;2022-07-24T03:24:55;100845.97;;;20.01;56.86
50462;BME280;45257;37.996;-122.328;2022-07-24T03:27:22;100846.78;;;20.02;56.96
50462;BME280;45257;37.996;-122.328;2022-07-24T03:29:49;100849.47;;;20.02;56.99
50462;BME280;45257;37.996;-122.328;2022-07-24T03:32:16;100840.59;;;20.01;56.87
50462;BME280;45257;37.996;-122.328;2022-07-24T03:34:43;100846.97;;;20.00;56.88
50462;BME280;45257;37.996;-122.328;2022-07-24T03:37:10;100842.44;;;20.01;56.90
50462;BME280;45257;37.996;-122.328;2022-07-24T03:39:37;100849.66;;;20.00;56.88
50462;BME280;45257;37.996;-122.328;2022-07-24T03:42:04;100858.53;;;20.01;57.04
50462;BME280;45257;37.996;-122.328;2022-07-24T03:44:31;100848.00;;;19.99;56.89
50462;BME280;45257;37.996;-122.328;2022-07-24T03:46:58;100849.03;;;19.98;56.79
50462;BME280;45257;37.996;-122.328;2022-07-24T03:49:25;100844.69;;;19.97;56.99
50462;BME280;45257;37.996;-122.328;2022-07-24T03:51:52;100850.06;;;19.97;57.07
50462;BME280;45257;37.996;-122.328;2022-07-24T03:54:19;100850.28;;;19.95;57.12
50462;BME280;45257;37.996;-122.328;2022-07-24T03:56:46;100849.44;;;19.95;57.21
50462;BME280;45257;37.996;-122.328;2022-07-24T03:59:13;100860.16;;;19.95;57.12
50462;BME280;45257;37.996;-122.328;2022-07-24T04:01:40;100871.13;;;19.93;57.42
50462;BME280;45257;37.996;-122.328;2022-07-24T04:04:07;100866.56;;;19.94;57.26
50462;BME280;45257;37.996;-122.328;2022-07-24T04:06:34;100859.53;;;19.93;57.48
50462;BME280;45257;37.996;-122.328;2022-07-24T04:09:03;100861.41;;;19.92;57.51
50462;BME280;45257;37.996;-122.328;2022-07-24T04:11:31;100864.28;;;19.91;57.44
50462;BME280;45257;37.996;-122.328;2022-07-24T04:13:58;100871.31;;;19.92;57.44
50462;BME280;45257;37.996;-122.328;2022-07-24T04:16:25;100869.66;;;19.91;57.61
50462;BME280;45257;37.996;-122.328;2022-07-24T04:18:52;100862.66;;;19.90;57.45
50462;BME280;45257;37.996;-122.328;2022-07-24T04:21:19;100862.03;;;19.88;57.56
50462;BME280;45257;37.996;-122.328;2022-07-24T04:23:46;100872.75;;;19.88;57.59
50462;BME280;45257;37.996;-122.328;2022-07-24T04:26:13;100873.75;;;19.87;57.65
50462;BME280;45257;37.996;-122.328;2022-07-24T04:28:40;100881.78;;;19.87;57.72
50462;BME280;45257;37.996;-122.328;2022-07-24T04:31:08;100879.13;;;19.87;57.59
50462;BME280;45257;37.996;-122.328;2022-07-24T04:33:35;100875.78;;;19.85;57.73
50462;BME280;45257;37.996;-122.328;2022-07-24T04:36:04;100881.97;;;19.85;57.71
50462;BME280;45257;37.996;-122.328;2022-07-24T04:38:33;100873.13;;;19.85;57.72
50462;BME280;45257;37.996;-122.328;2022-07-24T04:41:01;100871.47;;;19.83;57.75
50462;BME280;45257;37.996;-122.328;2022-07-24T04:43:28;100891.06;;;19.84;57.72
50462;BME280;45257;37.996;-122.328;2022-07-24T04:45:55;100893.94;;;19.82;57.88
50462;BME280;45257;37.996;-122.328;2022-07-24T04:48:22;100893.94;;;19.82;57.95
50462;BME280;45257;37.996;-122.328;2022-07-24T04:50:52;100895.19;;;19.80;57.81
50462;BME280;45257;37.996;-122.328;2022-07-24T04:53:19;100887.94;;;19.80;57.85
50462;BME280;45257;37.996;-122.328;2022-07-24T04:55:46;100886.28;;;19.79;57.72
50462;BME280;45257;37.996;-122.328;2022-07-24T04:58:13;100880.28;;;19.77;57.98
50462;BME280;45257;37.996;-122.328;2022-07-24T05:00:40;100883.19;;;19.76;58.08
50462;BME280;45257;37.996;-122.328;2022-07-24T05:03:07;100893.06;;;19.75;58.04
50462;BME280;45257;37.996;-122.328;2022-07-24T05:05:34;100890.38;;;19.75;58.07
50462;BME280;45257;37.996;-122.328;2022-07-24T05:08:01;100893.91;;;19.76;57.67
50462;BME280;45257;37.996;-122.328;2022-07-24T05:10:28;100889.75;;;19.73;57.67
50462;BME280;45257;37.996;-122.328;2022-07-24T05:12:55;100887.91;;;19.74;57.78
50462;BME280;45257;37.996;-122.328;2022-07-24T05:15:22;100885.41;;;19.72;57.93
50462;BME280;45257;37.996;-122.328;2022-07-24T05:17:49;100890.19;;;19.70;57.73
50462;BME280;45257;37.996;-122.328;2022-07-24T05:20:16;100882.13;;;19.70;57.73
50462;BME280;45257;37.996;-122.328;2022-07-24T05:22:43;100880.47;;;19.69;58.01
50462;BME280;45257;37.996;-122.328;2022-07-24T05:25:10;100878.81;;;19.68;57.70
50462;BME280;45257;37.996;-122.328;2022-07-24T05:27:37;100891.38;;;19.67;57.77
50462;BME280;45257;37.996;-122.328;2022-07-24T05:30:06;100900.28;;;19.68;57.96
50462;BME280;45257;37.996;-122.328;2022-07-24T05:32:33;100888.91;;;19.66;57.89
50462;BME280;45257;37.996;-122.328;2022-07-24T05:35:00;100892.63;;;19.65;57.79
50462;BME280;45257;37.996;-122.328;2022-07-24T05:37:27;100891.97;;;19.63;58.00
50462;BME280;45257;37.996;-122.328;2022-07-24T05:39:54;100896.31;;;19.64;58.04
50462;BME280;45257;37.996;-122.328;2022-07-24T05:42:21;100897.56;;;19.61;57.96
50462;BME280;45257;37.996;-122.328;2022-07-24T05:44:48;100898.56;;;19.60;57.90
50462;BME280;45257;37.996;-122.328;2022-07-24T05:47:15;100903.31;;;19.58;58.20
50462;BME280;45257;37.996;-122.328;2022-07-24T05:49:42;100898.13;;;19.57;57.88
50462;BME280;45257;37.996;-122.328;2022-07-24T05:52:09;100914.22;;;19.57;58.12
50462;BME280;45257;37.996;-122.328;2022-07-24T05:54:36;100912.56;;;19.56;58.13
50462;BME280;45257;37.996;-122.328;2022-07-24T05:57:04;100912.75;;;19.54;58.24
50462;BME280;45257;37.996;-122.328;2022-07-24T05:59:30;100911.94;;;19.54;58.21
50462;BME280;45257;37.996;-122.328;2022-07-24T06:01:57;100914.81;;;19.52;58.18
50462;BME280;45257;37.996;-122.328;2022-07-24T06:04:26;100912.13;;;19.52;58.29
50462;BME280;45257;37.996;-122.328;2022-07-24T06:06:53;100918.72;;;19.49;58.44
50462;BME280;45257;37.996;-122.328;2022-07-24T06:09:20;100915.03;;;19.50;58.17
50462;BME280;45257;37.996;-122.328;2022-07-24T06:11:47;100908.00;;;19.49;58.37
50462;BME280;45257;37.996;-122.328;2022-07-24T06:14:14;100909.03;;;19.48;58.33
50462;BME280;45257;37.996;-122.328;2022-07-24T06:16:46;100910.03;;;19.47;58.26
50462;BME280;45257;37.996;-122.328;2022-07-24T06:19:13;100909.41;;;19.45;58.39
50462;BME280;45257;37.996;-122.328;2022-07-24T06:21:40;100903.19;;;19.45;58.31
50462;BME280;45257;37.996;-122.328;2022-07-24T06:24:07;100911.44;;;19.43;58.51
50462;BME280;45257;37.996;-122.328;2022-07-24T06:26:35;100906.09;;;19.43;58.38
50462;BME280;45257;37.996;-122.328;2022-07-24T06:29:05;100895.34;;;19.43;58.41
50462;BME280;45257;37.996;-122.328;2022-07-24T06:31:31;100906.47;;;19.40;58.45
50462;BME280;45257;37.996;-122.328;2022-07-24T06:33:58;100911.84;;;19.40;58.49
50462;BME280;45257;37.996;-122.328;2022-07-24T06:36:25;100919.88;;;19.40;58.54
50462;BME280;45257;37.996;-122.328;2022-07-24T06:38:53;100923.59;;;19.39;58.61
50462;BME280;45257;37.996;-122.328;2022-07-24T06:41:20;100927.28;;;19.38;58.54
50462;BME280;45257;37.996;-122.328;2022-07-24T06:43:47;100932.00;;;19.36;58.64
50462;BME280;45257;37.996;-122.328;2022-07-24T06:46:14;100936.56;;;19.35;58.94
50462;BME280;45257;37.996;-122.328;2022-07-24T06:48:41;100934.91;;;19.34;58.66
50462;BME280;45257;37.996;-122.328;2022-07-24T06:51:08;100929.75;;;19.33;58.52
50462;BME280;45257;37.996;-122.328;2022-07-24T06:53:38;100933.25;;;19.33;58.63
50462;BME280;45257;37.996;-122.328;2022-07-24T06:56:07;100934.25;;;19.32;58.87
50462;BME280;45257;37.996;-122.328;2022-07-24T06:58:34;100935.09;;;19.33;58.70
50462;BME280;45257;37.996;-122.328;2022-07-24T07:01:01;100942.69;;;19.29;58.76
50462;BME280;45257;37.996;-122.328;2022-07-24T07:03:28;100931.97;;;19.29;58.81
50462;BME280;45257;37.996;-122.328;2022-07-24T07:05:55;100935.66;;;19.28;58.75
50462;BME280;45257;37.996;-122.328;2022-07-24T07:08:22;100943.09;;;19.26;58.77
50462;BME280;45257;37.996;-122.328;2022-07-24T07:10:49;100941.44;;;19.25;58.88
50462;BME280;45257;37.996;-122.328;2022-07-24T07:13:16;100936.91;;;19.26;58.92
50462;BME280;45257;37.996;-122.328;2022-07-24T07:15:43;100947.63;;;19.26;58.87
50462;BME280;45257;37.996;-122.328;2022-07-24T07:18:09;100945.97;;;19.25;58.95
50462;BME280;45257;37.996;-122.328;2022-07-24T07:20:36;100948.00;;;19.22;58.77
50462;BME280;45257;37.996;-122.328;2022-07-24T07:23:03;100957.91;;;19.22;58.89
50462;BME280;45257;37.996;-122.328;2022-07-24T07:25:30;100946.34;;;19.21;58.89
50462;BME280;45257;37.996;-122.328;2022-07-24T07:27:58;100948.38;;;19.19;58.94
50462;BME280;45257;37.996;-122.328;2022-07-24T07:30:25;100944.03;;;19.18;59.03
50462;BME280;45257;37.996;-122.328;2022-07-24T07:32:52;100942.38;;;19.17;58.95
50462;BME280;45257;37.996;-122.328;2022-07-24T07:35:19;100945.91;;;19.18;58.92
50462;BME280;45257;37.996;-122.328;2022-07-24T07:37:50;100945.06;;;19.17;59.22
50462;BME280;45257;37.996;-122.328;2022-07-24T07:40:17;100943.44;;;19.16;59.18
50462;BME280;45257;37.996;-122.328;2022-07-24T07:42:44;100950.84;;;19.14;59.29
50462;BME280;45257;37.996;-122.328;2022-07-24T07:45:11;100948.97;;;19.15;59.23
50462;BME280;45257;37.996;-122.328;2022-07-24T07:47:38;100940.09;;;19.14;59.35
50462;BME280;45257;37.996;-122.328;2022-07-24T07:50:06;100939.47;;;19.12;59.09
50462;BME280;45257;37.996;-122.328;2022-07-24T07:52:33;100944.00;;;19.12;59.45
50462;BME280;45257;37.996;-122.328;2022-07-24T07:55:00;100942.31;;;19.11;59.51
50462;BME280;45257;37.996;-122.328;2022-07-24T07:57:27;100941.50;;;19.10;59.33
50462;BME280;45257;37.996;-122.328;2022-07-24T07:59:54;100945.22;;;19.09;59.33
50462;BME280;45257;37.996;-122.328;2022-07-24T08:02:21;100951.59;;;19.08;59.05
50462;BME280;45257;37.996;-122.328;2022-07-24T08:04:47;100943.75;;;19.06;59.36
50462;BME280;45257;37.996;-122.328;2022-07-24T08:07:14;100941.25;;;19.05;59.53
50462;BME280;45257;37.996;-122.328;2022-07-24T08:09:41;100934.22;;;19.04;59.49
50462;BME280;45257;37.996;-122.328;2022-07-24T08:12:08;100938.94;;;19.02;59.37
50462;BME280;45257;37.996;-122.328;2022-07-24T08:14:35;100940.59;;;19.03;59.57
50462;BME280;45257;37.996;-122.328;2022-07-24T08:17:03;100936.28;;;19.02;59.52
50462;BME280;45257;37.996;-122.328;2022-07-24T08:19:30;100947.19;;;19.00;59.52
50462;BME280;45257;37.996;-122.328;2022-07-24T08:21:57;100938.31;;;19.00;59.49
50462;BME280;45257;37.996;-122.328;2022-07-24T08:24:25;100947.41;;;18.99;59.53
50462;BME280;45257;37.996;-122.328;2022-07-24T08:26:52;100945.75;;;18.98;59.51
50462;BME280;45257;37.996;-122.328;2022-07-24T08:29:19;100949.22;;;18.98;59.51
50462;BME280;45257;37.996;-122.328;2022-07-24T08:31:46;100951.09;;;18.98;59.68
50462;BME280;45257;37.996;-122.328;2022-07-24T08:34:13;100951.91;;;18.98;59.58
50462;BME280;45257;37.996;-122.328;2022-07-24T08:36:40;100951.09;;;18.98;59.59
50462;BME280;45257;37.996;-122.328;2022-07-24T08:39:07;100951.09;;;18.98;59.68
50462;BME280;45257;37.996;-122.328;2022-07-24T08:41:34;100960.31;;;18.95;59.60
50462;BME280;45257;37.996;-122.328;2022-07-24T08:44:07;100961.19;;;18.96;59.68
50462;BME280;45257;37.996;-122.328;2022-07-24T08:46:39;100963.00;;;18.95;59.85
50462;BME280;45257;37.996;-122.328;2022-07-24T08:49:13;100961.31;;;18.94;59.68
50462;BME280;45257;37.996;-122.328;2022-07-24T08:51:42;100952.47;;;18.94;59.77
50462;BME280;45257;37.996;-122.328;2022-07-24T08:54:11;100952.63;;;18.92;59.60
50462;BME280;45257;37.996;-122.328;2022-07-24T08:56:42;100955.31;;;18.92;59.83
50462;BME280;45257;37.996;-122.328;2022-07-24T08:59:21;100952.84;;;18.90;59.71
50462;BME280;45257;37.996;-122.328;2022-07-24T09:01:49;100952.84;;;18.90;59.86
50462;BME280;45257;37.996;-122.328;2022-07-24T09:04:48;100959.22;;;18.89;59.84
50462;BME280;45257;37.996;-122.328;2022-07-24T09:07:21;100955.91;;;18.87;59.93
50462;BME280;45257;37.996;-122.328;2022-07-24T09:10:13;100955.06;;;18.87;59.98
50462;BME280;45257;37.996;-122.328;2022-07-24T09:12:45;100959.59;;;18.86;59.92
50462;BME280;45257;37.996;-122.328;2022-07-24T09:17:56;100957.94;;;18.85;60.18
50462;BME280;45257;37.996;-122.328;2022-07-24T09:20:26;100963.28;;;18.85;60.15
50462;BME280;45257;37.996;-122.328;2022-07-24T09:23:00;100957.94;;;18.85;60.05
50462;BME280;45257;37.996;-122.328;2022-07-24T09:25:28;100959.97;;;18.83;60.04
50462;BME280;45257;37.996;-122.328;2022-07-24T09:28:01;100956.66;;;18.81;60.20
50462;BME280;45257;37.996;-122.328;2022-07-24T09:30:35;100953.16;;;18.81;60.13
50462;BME280;45257;37.996;-122.328;2022-07-24T09:35:47;100958.72;;;18.79;60.22
50462;BME280;45257;37.996;-122.328;2022-07-24T09:38:21;100960.38;;;18.80;60.16
50462;BME280;45257;37.996;-122.328;2022-07-24T09:40:53;100951.69;;;18.78;60.27
50462;BME280;45257;37.996;-122.328;2022-07-24T09:43:31;100951.69;;;18.78;60.33
50462;BME280;45257;37.996;-122.328;2022-07-24T09:46:09;100954.53;;;18.76;60.35
50462;BME280;45257;37.996;-122.328;2022-07-24T09:48:39;100951.06;;;18.76;60.19
50462;BME280;45257;37.996;-122.328;2022-07-24T09:51:12;100952.88;;;18.75;60.18
50462;BME280;45257;37.996;-122.328;2022-07-24T09:53:40;100960.09;;;18.75;60.41
50462;BME280;45257;37.996;-122.328;2022-07-24T09:56:08;100956.78;;;18.73;60.48
50462;BME280;45257;37.996;-122.328;2022-07-24T09:58:40;100956.78;;;18.73;60.26
50462;BME280;45257;37.996;-122.328;2022-07-24T10:01:09;100956.78;;;18.73;60.27
50462;BME280;45257;37.996;-122.328;2022-07-24T10:03:38;100950.56;;;18.72;60.27
50462;BME280;45257;37.996;-122.328;2022-07-24T10:06:09;100944.41;;;18.72;60.39
50462;BME280;45257;37.996;-122.328;2022-07-24T10:08:40;100943.75;;;18.70;60.45
50462;BME280;45257;37.996;-122.328;2022-07-24T10:11:09;100937.59;;;18.69;60.41
50462;BME280;45257;37.996;-122.328;2022-07-24T10:13:37;100936.75;;;18.69;60.46
50462;BME280;45257;37.996;-122.328;2022-07-24T10:16:27;100945.78;;;18.68;60.40
50462;BME280;45257;37.996;-122.328;2022-07-24T10:18:57;100939.63;;;18.67;60.38
50462;BME280;45257;37.996;-122.328;2022-07-24T10:21:33;100941.47;;;18.67;60.52
50462;BME280;45257;37.996;-122.328;2022-07-24T10:24:11;100938.78;;;18.67;60.41
50462;BME280;45257;37.996;-122.328;2022-07-24T10:26:44;100932.59;;;18.66;60.54
50462;BME280;45257;37.996;-122.328;2022-07-24T10:29:21;100930.09;;;18.65;60.81
50462;BME280;45257;37.996;-122.328;2022-07-24T10:31:53;100924.75;;;18.65;60.60
50462;BME280;45257;37.996;-122.328;2022-07-24T10:34:51;100936.31;;;18.65;60.61
50462;BME280;45257;37.996;-122.328;2022-07-24T10:37:51;100932.97;;;18.63;60.46
50462;BME280;45257;37.996;-122.328;2022-07-24T10:40:44;100931.31;;;18.62;60.43
50462;BME280;45257;37.996;-122.328;2022-07-24T10:43:13;100938.34;;;18.63;60.77
50462;BME280;45257;37.996;-122.328;2022-07-24T10:45:52;100938.34;;;18.63;60.58
50462;BME280;45257;37.996;-122.328;2022-07-24T10:48:36;100942.84;;;18.62;60.40
50462;BME280;45257;37.996;-122.328;2022-07-24T10:51:13;100934.19;;;18.60;60.46
50462;BME280;45257;37.996;-122.328;2022-07-24T10:53:52;100945.72;;;18.61;60.61
50462;BME280;45257;37.996;-122.328;2022-07-24T10:56:38;100944.06;;;18.60;60.80
50462;BME280;45257;37.996;-122.328;2022-07-24T10:59:12;100945.94;;;18.59;60.56
50462;BME280;45257;37.996;-122.328;2022-07-24T11:01:48;100947.59;;;18.60;60.68
50462;BME280;45257;37.996;-122.328;2022-07-24T11:07:11;100945.28;;;18.57;60.54
50462;BME280;45257;37.996;-122.328;2022-07-24T11:10:03;100941.59;;;18.58;60.72
50462;BME280;45257;37.996;-122.328;2022-07-24T11:12:42;100950.66;;;18.57;60.55
50462;BME280;45257;37.996;-122.328;2022-07-24T11:15:09;100943.63;;;18.56;60.66
50462;BME280;45257;37.996;-122.328;2022-07-24T11:17:55;100939.28;;;18.55;60.71
50462;BME280;45257;37.996;-122.328;2022-07-24T11:20:39;100948.34;;;18.54;60.57
50462;BME280;45257;37.996;-122.328;2022-07-24T11:23:20;100933.28;;;18.53;60.60
50462;BME280;45257;37.996;-122.328;2022-07-24T11:25:47;100938.63;;;18.53;60.63
50462;BME280;45257;37.996;-122.328;2022-07-24T11:28:14;100940.31;;;18.54;60.53
50462;BME280;45257;37.996;-122.328;2022-07-24T11:30:44;100940.50;;;18.53;60.82
50462;BME280;45257;37.996;-122.328;2022-07-24T11:33:12;100939.66;;;18.52;60.63
50462;BME280;45257;37.996;-122.328;2022-07-24T11:35:43;100942.34;;;18.52;60.90
50462;BME280;45257;37.996;-122.328;2022-07-24T11:38:11;100939.88;;;18.51;60.85
50462;BME280;45257;37.996;-122.328;2022-07-24T11:40:38;100941.53;;;18.52;60.77
50462;BME280;45257;37.996;-122.328;2022-07-24T11:43:07;100933.66;;;18.50;60.84
50462;BME280;45257;37.996;-122.328;2022-07-24T11:45:35;100943.56;;;18.50;60.70
50462;BME280;45257;37.996;-122.328;2022-07-24T11:48:03;100942.72;;;18.49;60.74
50462;BME280;45257;37.996;-122.328;2022-07-24T11:50:30;100937.56;;;18.48;60.73
50462;BME280;45257;37.996;-122.328;2022-07-24T11:52:59;100940.22;;;18.48;60.89
50462;BME280;45257;37.996;-122.328;2022-07-24T11:55:26;100948.25;;;18.48;60.69
50462;BME280;45257;37.996;-122.328;2022-07-24T11:57:55;100951.13;;;18.46;60.96
50462;BME280;45257;37.996;-122.328;2022-07-24T12:00:28;100953.78;;;18.46;60.89
50462;BME280;45257;37.996;-122.328;2022-07-24T12:03:01;100945.97;;;18.44;61.05
50462;BME280;45257;37.996;-122.328;2022-07-24T12:05:31;100952.13;;;18.45;60.69
50462;BME280;45257;37.996;-122.328;2022-07-24T12:08:02;100950.50;;;18.44;60.70
50462;BME280;45257;37.996;-122.328;2022-07-24T12:10:30;100950.50;;;18.44;61.08
50462;BME280;45257;37.996;-122.328;2022-07-24T12:12:58;100958.53;;;18.44;61.21
50462;BME280;45257;37.996;-122.328;2022-07-24T12:15:26;100951.50;;;18.43;60.74
50462;BME280;45257;37.996;-122.328;2022-07-24T12:18:03;100956.03;;;18.42;60.96
50462;BME280;45257;37.996;-122.328;2022-07-24T12:20:41;100954.34;;;18.41;61.24
50462;BME280;45257;37.996;-122.328;2022-07-24T12:23:11;100957.03;;;18.41;60.69
50462;BME280;45257;37.996;-122.328;2022-07-24T12:25:39;100957.88;;;18.42;61.12
50462;BME280;45257;37.996;-122.328;2022-07-24T12:28:13;100959.72;;;18.41;60.86
50462;BME280;45257;37.996;-122.328;2022-07-24T12:30:53;100962.59;;;18.40;61.03
50462;BME280;45257;37.996;-122.328;2022-07-24T12:33:25;100963.59;;;18.39;60.99
50462;BME280;45257;37.996;-122.328;2022-07-24T12:36:16;100963.59;;;18.39;60.94
50462;BME280;45257;37.996;-122.328;2022-07-24T12:38:52;100970.78;;;18.38;61.17